sensor_id;sensor_type;location;lat;lon;timestamp;temperature;humidity
1005;DHT22;491;53.480;10.174;2022-12-07T00:01:16;3.00;99.90
1005;DHT22;491;53.480;10.174;2022-12-07T00:03:45;3.10;99.90
1005;DHT22;491;53.480;10.174;2022-12-07T00:06:13;3.10;99.90
1005;DHT22;491;53.480;10.174;2022-12-07T00:08:39;3.10;99.90
1005;DHT22;491;53.480;10.174;2022-12-07T00:11:07;3.20;99.90
1005;DHT22;491;53.480;10.174;2022-12-07T00:13:33;3.20;99.90
1005;DHT22;491;53.480;10.174;2022-12-07T00:16:06;3.20;99.90
1005;DHT22;491;53.480;10.174;2022-12-07T00:18:32;3.30;99.90
1005;DHT22;491;53.480;10.174;2022-12-07T00:21:02;3.30;99.90
1005;DHT22;491;53.480;10.174;2022-12-07T00:23:28;3.30;99.90
1005;DHT22;491;53.480;10.174;2022-12-07T00:25:53;3.30;99.90
1005;DHT22;491;53.480;10.174;2022-12-07T00:28:19;3.30;99.90
1005;DHT22;491;53.480;10.174;2022-12-07T00:30:44;3.30;99.90
1005;DHT22;491;53.480;10.174;2022-12-07T00:33:10;3.30;99.90
1005;DHT22;491;53.480;10.174;2022-12-07T00:35:35;3.30;99.90
1005;DHT22;491;53.480;10.174;2022-12-07T00:38:01;3.20;99.90
1005;DHT22;491;53.480;10.174;2022-12-07T00:40:26;3.30;99.90
1005;DHT22;491;53.480;10.174;2022-12-07T00:42:55;3.20;99.90
1005;DHT22;491;53.480;10.174;2022-12-07T00:45:20;3.20;99.90
1005;DHT22;491;53.480;10.174;2022-12-07T00:47:45;3.20;99.90
1005;DHT22;491;53.480;10.174;2022-12-07T00:50:11;3.20;99.90
1005;DHT22;491;53.480;10.174;2022-12-07T00:52:36;3.20;99.90
1005;DHT22;491;53.480;10.174;2022-12-07T00:55:02;3.10;99.90
1005;DHT22;491;53.480;10.174;2022-12-07T00:57:28;3.00;99.90
1005;DHT22;491;53.480;10.174;2022-12-07T00:59:56;2.90;99.90
1005;DHT22;491;53.480;10.174;2022-12-07T01:02:29;2.90;99.90
1005;DHT22;491;53.480;10.174;2022-12-07T01:04:54;2.90;99.90
1005;DHT22;491;53.480;10.174;2022-12-07T01:07:20;2.90;99.90
1005;DHT22;491;53.480;10.174;2022-12-07T01:09:45;3.00;99.90
1005;DHT22;491;53.480;10.174;2022-12-07T01:12:17;3.00;99.90
1005;DHT22;491;53.480;10.174;2022-12-07T01:14:42;3.10;99.90
1005;DHT22;491;53.480;10.174;2022-12-07T01:17:08;3.20;99.90
1005;DHT22;491;53.480;10.174;2022-12-07T01:19:33;3.20;99.90
1005;DHT22;491;53.480;10.174;2022-12-07T01:21:59;3.20;99.90
1005;DHT22;491;53.480;10.174;2022-12-07T01:24:24;3.30;99.90
1005;DHT22;491;53.480;10.174;2022-12-07T01:26:50;3.30;99.90
1005;DHT22;491;53.480;10.174;2022-12-07T01:29:15;3.30;99.90
1005;DHT22;491;53.480;10.174;2022-12-07T01:31:43;3.30;99.90
1005;DHT22;491;53.480;10.174;2022-12-07T01:34:09;3.30;99.90
1005;DHT22;491;53.480;10.174;2022-12-07T01:36:36;3.30;99.90
1005;DHT22;491;53.480;10.174;2022-12-07T01:39:04;3.40;99.90
1005;DHT22;491;53.480;10.174;2022-12-07T01:41:33;3.40;99.90
1005;DHT22;491;53.480;10.174;2022-12-07T01:44:22;3.40;99.90
1005;DHT22;491;53.480;10.174;2022-12-07T01:46:54;3.40;99.90
1005;DHT22;491;53.480;10.174;2022-12-07T01:49:44;3.30;99.90
1005;DHT22;491;53.480;10.174;2022-12-07T01:54:41;3.30;99.90
1005;DHT22;491;53.480;10.174;2022-12-07T01:57:08;3.30;99.90
1005;DHT22;491;53.480;10.174;2022-12-07T01:59:34;3.40;99.90
1005;DHT22;491;53.480;10.174;2022-12-07T02:02:02;3.40;99.90
1005;DHT22;491;53.480;10.174;2022-12-07T02:04:29;3.40;99.90
1005;DHT22;491;53.480;10.174;2022-12-07T02:06:55;3.40;99.90
1005;DHT22;491;53.480;10.174;2022-12-07T02:09:22;3.40;99.90
1005;DHT22;491;53.480;10.174;2022-12-07T02:11:48;3.40;99.90
1005;DHT22;491;53.480;10.174;2022-12-07T02:14:14;3.40;99.90
1005;DHT22;491;53.480;10.174;2022-12-07T02:22:59;3.50;99.90
1005;DHT22;491;53.480;10.174;2022-12-07T02:31:18;3.30;99.90
1005;DHT22;491;53.480;10.174;2022-12-07T02:33:49;3.20;99.90
1005;DHT22;491;53.480;10.174;2022-12-07T02:36:32;3.20;99.90
1005;DHT22;491;53.480;10.174;2022-12-07T02:39:02;3.10;99.90
1005;DHT22;491;53.480;10.174;2022-12-07T02:41:34;3.10;99.90
1005;DHT22;491;53.480;10.174;2022-12-07T02:44:12;3.10;99.90
1005;DHT22;491;53.480;10.174;2022-12-07T02:46:46;3.00;99.90
1005;DHT22;491;53.480;10.174;2022-12-07T02:49:14;3.00;99.90
1005;DHT22;491;53.480;10.174;2022-12-07T02:51:42;2.90;99.90
1005;DHT22;491;53.480;10.174;2022-12-07T02:54:16;2.90;99.90
1005;DHT22;491;53.480;10.174;2022-12-07T02:56:52;2.80;99.90
1005;DHT22;491;53.480;10.174;2022-12-07T02:59:58;2.80;99.90
1005;DHT22;491;53.480;10.174;2022-12-07T03:05:48;2.70;99.90
1005;DHT22;491;53.480;10.174;2022-12-07T03:08:33;2.80;99.90
1005;DHT22;491;53.480;10.174;2022-12-07T03:11:09;2.80;99.90
1005;DHT22;491;53.480;10.174;2022-12-07T03:14:23;2.90;99.90
1005;DHT22;491;53.480;10.174;2022-12-07T03:16:45;2.90;99.90
1005;DHT22;491;53.480;10.174;2022-12-07T03:19:18;2.80;99.90
1005;DHT22;491;53.480;10.174;2022-12-07T03:21:49;2.70;99.90
1005;DHT22;491;53.480;10.174;2022-12-07T03:24:19;2.70;99.90
1005;DHT22;491;53.480;10.174;2022-12-07T03:26:52;2.60;99.90
1005;DHT22;491;53.480;10.174;2022-12-07T03:29:31;2.60;99.90
1005;DHT22;491;53.480;10.174;2022-12-07T03:32:25;2.60;99.90
1005;DHT22;491;53.480;10.174;2022-12-07T03:35:12;2.60;99.90
1005;DHT22;491;53.480;10.174;2022-12-07T03:37:55;2.60;99.90
1005;DHT22;491;53.480;10.174;2022-12-07T03:40:37;2.60;99.90
1005;DHT22;491;53.480;10.174;2022-12-07T03:43:05;2.60;99.90
1005;DHT22;491;53.480;10.174;2022-12-07T03:45:40;2.60;99.90
1005;DHT22;491;53.480;10.174;2022-12-07T03:48:28;2.50;99.90
1005;DHT22;491;53.480;10.174;2022-12-07T03:51:16;2.50;99.90
1005;DHT22;491;53.480;10.174;2022-12-07T03:53:48;2.50;99.90
1005;DHT22;491;53.480;10.174;2022-12-07T03:56:17;2.60;99.90
1005;DHT22;491;53.480;10.174;2022-12-07T03:58:43;2.50;99.90
1005;DHT22;491;53.480;10.174;2022-12-07T04:01:09;2.60;99.90
1005;DHT22;491;53.480;10.174;2022-12-07T04:03:34;2.50;99.90
1005;DHT22;491;53.480;10.174;2022-12-07T04:06:00;2.50;99.90
1005;DHT22;491;53.480;10.174;2022-12-07T04:08:26;2.50;99.90
1005;DHT22;491;53.480;10.174;2022-12-07T04:10:51;2.40;99.90
1005;DHT22;491;53.480;10.174;2022-12-07T04:13:18;2.50;99.90
1005;DHT22;491;53.480;10.174;2022-12-07T04:15:43;2.40;99.90
1005;DHT22;491;53.480;10.174;2022-12-07T04:18:09;2.40;99.90
1005;DHT22;491;53.480;10.174;2022-12-07T04:20:34;2.30;99.90
1005;DHT22;491;53.480;10.174;2022-12-07T04:23:00;2.40;99.90
1005;DHT22;491;53.480;10.174;2022-12-07T04:25:25;2.40;99.90
1005;DHT22;491;53.480;10.174;2022-12-07T04:27:51;2.40;99.90
1005;DHT22;491;53.480;10.174;2022-12-07T04:30:16;2.30;99.90
1005;DHT22;491;53.480;10.174;2022-12-07T04:32:42;2.40;99.90
1005;DHT22;491;53.480;10.174;2022-12-07T04:35:08;2.30;99.90
1005;DHT22;491;53.480;10.174;2022-12-07T04:37:33;2.30;99.90
1005;DHT22;491;53.480;10.174;2022-12-07T04:39:59;2.30;99.90
1005;DHT22;491;53.480;10.174;2022-12-07T04:42:24;2.30;99.90
1005;DHT22;491;53.480;10.174;2022-12-07T04:44:50;2.30;99.90
1005;DHT22;491;53.480;10.174;2022-12-07T04:47:16;2.30;99.90
1005;DHT22;491;53.480;10.174;2022-12-07T04:49:41;2.20;99.90
1005;DHT22;491;53.480;10.174;2022-12-07T04:52:07;2.20;99.90
1005;DHT22;491;53.480;10.174;2022-12-07T04:54:32;2.10;99.90
1005;DHT22;491;53.480;10.174;2022-12-07T04:56:59;2.20;99.90
1005;DHT22;491;53.480;10.174;2022-12-07T04:59:24;2.10;99.90
1005;DHT22;491;53.480;10.174;2022-12-07T05:01:50;2.10;99.90
1005;DHT22;491;53.480;10.174;2022-12-07T05:04:15;2.10;99.90
1005;DHT22;491;53.480;10.174;2022-12-07T05:06:41;2.10;99.90
1005;DHT22;491;53.480;10.174;2022-12-07T05:09:07;2.00;99.90
1005;DHT22;491;53.480;10.174;2022-12-07T05:11:33;2.00;99.90
1005;DHT22;491;53.480;10.174;2022-12-07T05:14:16;2.00;99.90
1005;DHT22;491;53.480;10.174;2022-12-07T05:16:43;1.90;99.90
1005;DHT22;491;53.480;10.174;2022-12-07T05:19:09;1.90;99.90
1005;DHT22;491;53.480;10.174;2022-12-07T05:21:36;1.80;99.90
1005;DHT22;491;53.480;10.174;2022-12-07T05:24:01;1.70;99.90
1005;DHT22;491;53.480;10.174;2022-12-07T05:26:27;1.70;99.90
1005;DHT22;491;53.480;10.174;2022-12-07T05:28:53;1.70;99.90
1005;DHT22;491;53.480;10.174;2022-12-07T05:31:20;1.70;99.90
1005;DHT22;491;53.480;10.174;2022-12-07T05:33:45;1.70;99.90
1005;DHT22;491;53.480;10.174;2022-12-07T05:36:11;1.80;99.90
1005;DHT22;491;53.480;10.174;2022-12-07T05:38:37;1.80;99.90
1005;DHT22;491;53.480;10.174;2022-12-07T05:41:04;1.70;99.90
1005;DHT22;491;53.480;10.174;2022-12-07T05:43:30;1.70;99.90
1005;DHT22;491;53.480;10.174;2022-12-07T05:45:56;1.60;99.90
1005;DHT22;491;53.480;10.174;2022-12-07T05:48:21;1.60;99.90
1005;DHT22;491;53.480;10.174;2022-12-07T05:50:48;1.50;99.90
1005;DHT22;491;53.480;10.174;2022-12-07T05:53:14;1.50;99.90
1005;DHT22;491;53.480;10.174;2022-12-07T05:55:39;1.50;99.90
1005;DHT22;491;53.480;10.174;2022-12-07T05:58:05;1.50;99.90
1005;DHT22;491;53.480;10.174;2022-12-07T06:00:49;1.50;99.90
1005;DHT22;491;53.480;10.174;2022-12-07T06:03:14;1.50;99.90
1005;DHT22;491;53.480;10.174;2022-12-07T06:05:40;1.50;99.90
1005;DHT22;491;53.480;10.174;2022-12-07T06:08:07;1.50;99.90
1005;DHT22;491;53.480;10.174;2022-12-07T06:10:32;1.50;99.90
1005;DHT22;491;53.480;10.174;2022-12-07T06:12:58;1.40;99.90
1005;DHT22;491;53.480;10.174;2022-12-07T06:15:23;1.40;99.90
1005;DHT22;491;53.480;10.174;2022-12-07T06:17:49;1.40;99.90
1005;DHT22;491;53.480;10.174;2022-12-07T06:20:14;1.30;99.90
1005;DHT22;491;53.480;10.174;2022-12-07T06:22:43;1.30;99.90
1005;DHT22;491;53.480;10.174;2022-12-07T06:25:09;1.30;99.90
1005;DHT22;491;53.480;10.174;2022-12-07T06:27:35;1.30;99.90
1005;DHT22;491;53.480;10.174;2022-12-07T06:30:00;1.40;99.90
1005;DHT22;491;53.480;10.174;2022-12-07T06:32:32;1.40;99.90
1005;DHT22;491;53.480;10.174;2022-12-07T06:34:57;1.40;99.90
1005;DHT22;491;53.480;10.174;2022-12-07T06:37:25;1.50;99.90
1005;DHT22;491;53.480;10.174;2022-12-07T06:39:51;1.50;99.90
1005;DHT22;491;53.480;10.174;2022-12-07T06:42:16;1.50;99.90
1005;DHT22;491;53.480;10.174;2022-12-07T06:44:42;1.50;99.90
1005;DHT22;491;53.480;10.174;2022-12-07T06:47:09;1.40;99.90
1005;DHT22;491;53.480;10.174;2022-12-07T06:49:34;1.40;99.90
1005;DHT22;491;53.480;10.174;2022-12-07T06:52:00;1.40;99.90
1005;DHT22;491;53.480;10.174;2022-12-07T06:54:25;1.30;99.90
1005;DHT22;491;53.480;10.174;2022-12-07T06:56:51;1.30;99.90
1005;DHT22;491;53.480;10.174;2022-12-07T06:59:16;1.30;99.90
1005;DHT22;491;53.480;10.174;2022-12-07T07:01:42;1.30;99.90
1005;DHT22;491;53.480;10.174;2022-12-07T07:04:08;1.30;99.90
1005;DHT22;491;53.480;10.174;2022-12-07T07:06:33;1.30;99.90
1005;DHT22;491;53.480;10.174;2022-12-07T07:08:59;1.30;99.90
1005;DHT22;491;53.480;10.174;2022-12-07T07:11:28;1.30;99.90
1005;DHT22;491;53.480;10.174;2022-12-07T07:13:53;1.40;99.90
1005;DHT22;491;53.480;10.174;2022-12-07T07:16:22;1.50;99.90
1005;DHT22;491;53.480;10.174;2022-12-07T07:18:48;1.60;99.90
1005;DHT22;491;53.480;10.174;2022-12-07T07:21:13;1.60;99.90
1005;DHT22;491;53.480;10.174;2022-12-07T07:23:39;1.60;99.90
1005;DHT22;491;53.480;10.174;2022-12-07T07:26:04;1.70;99.90
1005;DHT22;491;53.480;10.174;2022-12-07T07:28:33;1.70;99.90
1005;DHT22;491;53.480;10.174;2022-12-07T07:30:58;1.80;99.90
1005;DHT22;491;53.480;10.174;2022-12-07T07:33:24;1.80;99.90
1005;DHT22;491;53.480;10.174;2022-12-07T07:35:49;1.90;99.90
1005;DHT22;491;53.480;10.174;2022-12-07T07:38:15;1.90;99.90
1005;DHT22;491;53.480;10.174;2022-12-07T07:40:41;2.00;99.90
1005;DHT22;491;53.480;10.174;2022-12-07T07:43:07;2.00;99.90
1005;DHT22;491;53.480;10.174;2022-12-07T07:45:32;2.10;99.90
1005;DHT22;491;53.480;10.174;2022-12-07T07:47:58;2.10;99.90
1005;DHT22;491;53.480;10.174;2022-12-07T07:50:24;2.10;99.90
1005;DHT22;491;53.480;10.174;2022-12-07T07:52:50;2.10;99.90
1005;DHT22;491;53.480;10.174;2022-12-07T07:55:16;2.10;99.90
1005;DHT22;491;53.480;10.174;2022-12-07T07:57:42;2.10;99.90
1005;DHT22;491;53.480;10.174;2022-12-07T08:00:12;2.20;99.90
1005;DHT22;491;53.480;10.174;2022-12-07T08:02:39;2.20;99.90
1005;DHT22;491;53.480;10.174;2022-12-07T08:05:05;2.30;99.90
1005;DHT22;491;53.480;10.174;2022-12-07T08:07:31;2.30;99.90
1005;DHT22;491;53.480;10.174;2022-12-07T08:09:56;2.30;99.90
1005;DHT22;491;53.480;10.174;2022-12-07T08:12:22;2.40;99.90
1005;DHT22;491;53.480;10.174;2022-12-07T08:14:48;2.40;99.90
1005;DHT22;491;53.480;10.174;2022-12-07T08:17:14;2.40;99.90
1005;DHT22;491;53.480;10.174;2022-12-07T08:19:39;2.40;99.90
1005;DHT22;491;53.480;10.174;2022-12-07T08:22:05;2.40;99.90
1005;DHT22;491;53.480;10.174;2022-12-07T08:24:33;2.50;99.90
1005;DHT22;491;53.480;10.174;2022-12-07T08:26:59;2.60;99.90
1005;DHT22;491;53.480;10.174;2022-12-07T08:29:25;2.60;99.90
1005;DHT22;491;53.480;10.174;2022-12-07T08:31:50;2.70;99.90
1005;DHT22;491;53.480;10.174;2022-12-07T08:34:16;2.70;99.90
1005;DHT22;491;53.480;10.174;2022-12-07T08:36:42;2.80;99.90
1005;DHT22;491;53.480;10.174;2022-12-07T08:39:07;2.80;99.90
1005;DHT22;491;53.480;10.174;2022-12-07T08:41:33;2.80;99.90
1005;DHT22;491;53.480;10.174;2022-12-07T08:43:58;2.90;99.90
1005;DHT22;491;53.480;10.174;2022-12-07T08:49:08;2.90;99.90
1005;DHT22;491;53.480;10.174;2022-12-07T08:51:41;3.00;99.90
1005;DHT22;491;53.480;10.174;2022-12-07T08:54:10;3.10;99.90
1005;DHT22;491;53.480;10.174;2022-12-07T08:56:36;3.10;99.90
1005;DHT22;491;53.480;10.174;2022-12-07T08:59:03;3.20;99.90
1005;DHT22;491;53.480;10.174;2022-12-07T09:01:29;3.20;99.90
1005;DHT22;491;53.480;10.174;2022-12-07T09:03:55;3.20;99.90
1005;DHT22;491;53.480;10.174;2022-12-07T09:06:20;3.30;99.90
1005;DHT22;491;53.480;10.174;2022-12-07T09:08:49;3.40;99.90
1005;DHT22;491;53.480;10.174;2022-12-07T09:11:15;3.60;99.90
1005;DHT22;491;53.480;10.174;2022-12-07T09:13:40;3.80;99.90
1005;DHT22;491;53.480;10.174;2022-12-07T09:16:06;3.90;99.90
1005;DHT22;491;53.480;10.174;2022-12-07T09:18:32;4.00;99.90
1005;DHT22;491;53.480;10.174;2022-12-07T09:20:57;4.10;99.90
1005;DHT22;491;53.480;10.174;2022-12-07T09:23:23;4.10;99.90
1005;DHT22;491;53.480;10.174;2022-12-07T09:25:48;4.20;99.90
1005;DHT22;491;53.480;10.174;2022-12-07T09:28:14;4.20;99.90
1005;DHT22;491;53.480;10.174;2022-12-07T09:30:48;4.20;99.90
1005;DHT22;491;53.480;10.174;2022-12-07T09:33:13;4.30;99.90
1005;DHT22;491;53.480;10.174;2022-12-07T09:35:45;4.30;99.90
1005;DHT22;491;53.480;10.174;2022-12-07T09:38:14;4.40;99.90
1005;DHT22;491;53.480;10.174;2022-12-07T09:40:40;4.40;99.90
1005;DHT22;491;53.480;10.174;2022-12-07T09:43:23;4.50;99.90
1005;DHT22;491;53.480;10.174;2022-12-07T09:45:51;4.40;99.90
1005;DHT22;491;53.480;10.174;2022-12-07T09:48:22;4.40;99.90
1005;DHT22;491;53.480;10.174;2022-12-07T09:50:48;4.40;99.90
1005;DHT22;491;53.480;10.174;2022-12-07T09:53:24;4.40;99.90
1005;DHT22;491;53.480;10.174;2022-12-07T09:55:53;4.40;99.90
1005;DHT22;491;53.480;10.174;2022-12-07T09:58:23;4.50;99.90
1005;DHT22;491;53.480;10.174;2022-12-07T10:01:11;4.40;99.90
1005;DHT22;491;53.480;10.174;2022-12-07T10:03:42;4.40;99.90
1005;DHT22;491;53.480;10.174;2022-12-07T10:06:11;4.40;99.90
1005;DHT22;491;53.480;10.174;2022-12-07T10:08:37;4.50;99.90
1005;DHT22;491;53.480;10.174;2022-12-07T10:11:03;4.50;99.90
1005;DHT22;491;53.480;10.174;2022-12-07T10:13:37;4.50;99.90
1005;DHT22;491;53.480;10.174;2022-12-07T10:16:03;4.50;99.90
1005;DHT22;491;53.480;10.174;2022-12-07T10:18:39;4.40;99.90
1005;DHT22;491;53.480;10.174;2022-12-07T10:24:21;4.30;99.90
1005;DHT22;491;53.480;10.174;2022-12-07T10:26:32;4.30;99.90
1005;DHT22;491;53.480;10.174;2022-12-07T10:29:16;4.40;99.90
1005;DHT22;491;53.480;10.174;2022-12-07T10:31:44;4.40;99.90
1005;DHT22;491;53.480;10.174;2022-12-07T10:34:25;4.40;99.90
1005;DHT22;491;53.480;10.174;2022-12-07T10:36:53;4.50;99.90
1005;DHT22;491;53.480;10.174;2022-12-07T10:39:20;4.60;99.90
1005;DHT22;491;53.480;10.174;2022-12-07T10:41:58;4.60;99.90
1005;DHT22;491;53.480;10.174;2022-12-07T10:44:31;4.50;99.90
1005;DHT22;491;53.480;10.174;2022-12-07T10:55:20;4.40;99.90
1005;DHT22;491;53.480;10.174;2022-12-07T10:58:31;4.50;99.90
1005;DHT22;491;53.480;10.174;2022-12-07T11:01:29;4.60;99.90
1005;DHT22;491;53.480;10.174;2022-12-07T11:06:59;5.20;99.90
1005;DHT22;491;53.480;10.174;2022-12-07T11:09:56;5.60;99.90
1005;DHT22;491;53.480;10.174;2022-12-07T11:12:47;6.10;4.10
1005;DHT22;491;53.480;10.174;2022-12-07T11:19:05;6.30;1.00
1005;DHT22;491;53.480;10.174;2022-12-07T11:21:53;5.70;1.00
1005;DHT22;491;53.480;10.174;2022-12-07T11:24:47;5.40;47.80
1005;DHT22;491;53.480;10.174;2022-12-07T11:32:22;5.10;99.90
1005;DHT22;491;53.480;10.174;2022-12-07T11:35:15;5.00;99.90
1005;DHT22;491;53.480;10.174;2022-12-07T11:37:45;5.00;99.90
1005;DHT22;491;53.480;10.174;2022-12-07T11:40:24;4.90;99.90
1005;DHT22;491;53.480;10.174;2022-12-07T11:45:50;4.80;99.90
1005;DHT22;491;53.480;10.174;2022-12-07T11:48:19;4.70;99.90
1005;DHT22;491;53.480;10.174;2022-12-07T11:51:03;4.80;99.90
1005;DHT22;491;53.480;10.174;2022-12-07T11:53:47;4.80;99.90
1005;DHT22;491;53.480;10.174;2022-12-07T11:56:16;4.70;99.90
1005;DHT22;491;53.480;10.174;2022-12-07T12:06:43;4.80;99.90
1005;DHT22;491;53.480;10.174;2022-12-07T12:09:12;4.80;99.90
1005;DHT22;491;53.480;10.174;2022-12-07T12:20:23;4.90;99.90
1005;DHT22;491;53.480;10.174;2022-12-07T12:23:04;5.10;99.90
1005;DHT22;491;53.480;10.174;2022-12-07T12:25:45;5.10;99.90
1005;DHT22;491;53.480;10.174;2022-12-07T12:28:29;5.20;99.90
1005;DHT22;491;53.480;10.174;2022-12-07T12:31:07;5.20;99.90
1005;DHT22;491;53.480;10.174;2022-12-07T12:33:35;5.10;99.90
1005;DHT22;491;53.480;10.174;2022-12-07T12:47:02;5.30;99.90
1005;DHT22;491;53.480;10.174;2022-12-07T12:55:26;5.60;1.00
1005;DHT22;491;53.480;10.174;2022-12-07T12:58:29;5.70;1.00
1005;DHT22;491;53.480;10.174;2022-12-07T13:03:56;5.70;1.00
1005;DHT22;491;53.480;10.174;2022-12-07T13:08:56;5.40;1.00
1005;DHT22;491;53.480;10.174;2022-12-07T13:11:35;5.30;1.00
1005;DHT22;491;53.480;10.174;2022-12-07T13:14:41;5.30;1.00
1005;DHT22;491;53.480;10.174;2022-12-07T13:19:55;5.30;1.00
1005;DHT22;491;53.480;10.174;2022-12-07T13:25:02;5.20;1.00
1005;DHT22;491;53.480;10.174;2022-12-07T13:27:30;5.40;1.00
1005;DHT22;491;53.480;10.174;2022-12-07T13:29:59;5.20;99.90
1005;DHT22;491;53.480;10.174;2022-12-07T13:32:27;5.00;1.00
1005;DHT22;491;53.480;10.174;2022-12-07T13:34:54;5.00;1.00
1005;DHT22;491;53.480;10.174;2022-12-07T13:37:36;5.20;1.00
1005;DHT22;491;53.480;10.174;2022-12-07T13:40:19;5.00;1.00
1005;DHT22;491;53.480;10.174;2022-12-07T13:43:02;4.90;1.00
1005;DHT22;491;53.480;10.174;2022-12-07T13:45:31;4.80;1.00
1005;DHT22;491;53.480;10.174;2022-12-07T13:48:32;4.70;1.00
1005;DHT22;491;53.480;10.174;2022-12-07T13:51:00;4.70;1.00
1005;DHT22;491;53.480;10.174;2022-12-07T13:53:31;4.70;1.00
1005;DHT22;491;53.480;10.174;2022-12-07T13:55:57;4.60;1.00
1005;DHT22;491;53.480;10.174;2022-12-07T13:58:26;4.50;99.90
1005;DHT22;491;53.480;10.174;2022-12-07T14:00:52;4.50;1.00
1005;DHT22;491;53.480;10.174;2022-12-07T14:03:31;4.40;99.90
1005;DHT22;491;53.480;10.174;2022-12-07T14:06:27;4.30;99.90
1005;DHT22;491;53.480;10.174;2022-12-07T14:11:40;4.20;99.90
1005;DHT22;491;53.480;10.174;2022-12-07T14:14:10;4.30;1.00
1005;DHT22;491;53.480;10.174;2022-12-07T14:16:39;4.30;99.90
1005;DHT22;491;53.480;10.174;2022-12-07T14:22:18;4.20;1.00
1005;DHT22;491;53.480;10.174;2022-12-07T14:24:44;4.20;99.90
1005;DHT22;491;53.480;10.174;2022-12-07T14:27:21;4.10;99.90
1005;DHT22;491;53.480;10.174;2022-12-07T14:32:29;4.00;1.00
1005;DHT22;491;53.480;10.174;2022-12-07T14:35:02;4.30;99.90
1005;DHT22;491;53.480;10.174;2022-12-07T14:37:29;3.90;1.00
1005;DHT22;491;53.480;10.174;2022-12-07T14:39:56;3.80;1.00
1005;DHT22;491;53.480;10.174;2022-12-07T14:42:26;3.70;1.00
1005;DHT22;491;53.480;10.174;2022-12-07T14:44:52;3.60;99.90
1005;DHT22;491;53.480;10.174;2022-12-07T14:47:18;3.50;52.10
1005;DHT22;491;53.480;10.174;2022-12-07T14:49:46;3.40;98.80
1005;DHT22;491;53.480;10.174;2022-12-07T14:52:30;3.30;97.00
1005;DHT22;491;53.480;10.174;2022-12-07T14:54:56;3.20;1.00
1005;DHT22;491;53.480;10.174;2022-12-07T14:57:23;3.10;99.90
1005;DHT22;491;53.480;10.174;2022-12-07T14:59:48;2.90;99.90
1005;DHT22;491;53.480;10.174;2022-12-07T15:02:15;2.90;1.00
1005;DHT22;491;53.480;10.174;2022-12-07T15:04:42;2.60;1.00
1005;DHT22;491;53.480;10.174;2022-12-07T15:07:20;3.10;99.90
1005;DHT22;491;53.480;10.174;2022-12-07T15:09:47;2.70;1.00
1005;DHT22;491;53.480;10.174;2022-12-07T15:12:12;2.70;1.00
1005;DHT22;491;53.480;10.174;2022-12-07T15:14:38;2.50;1.00
1005;DHT22;491;53.480;10.174;2022-12-07T15:17:04;2.40;66.50
1005;DHT22;491;53.480;10.174;2022-12-07T15:19:30;2.30;69.00
1005;DHT22;491;53.480;10.174;2022-12-07T15:22:01;2.30;99.90
1005;DHT22;491;53.480;10.174;2022-12-07T15:24:27;2.30;40.00
1005;DHT22;491;53.480;10.174;2022-12-07T15:26:59;2.30;80.00
1005;DHT22;491;53.480;10.174;2022-12-07T15:29:35;2.40;99.90
1005;DHT22;491;53.480;10.174;2022-12-07T15:32:01;2.40;99.90
1005;DHT22;491;53.480;10.174;2022-12-07T15:34:39;2.50;99.90
1005;DHT22;491;53.480;10.174;2022-12-07T15:37:08;2.40;99.90
1005;DHT22;491;53.480;10.174;2022-12-07T15:39:35;2.40;99.90
1005;DHT22;491;53.480;10.174;2022-12-07T15:42:01;2.30;99.90
1005;DHT22;491;53.480;10.174;2022-12-07T15:44:27;2.30;99.90
1005;DHT22;491;53.480;10.174;2022-12-07T15:47:15;2.20;99.90
1005;DHT22;491;53.480;10.174;2022-12-07T15:49:44;2.00;99.90
1005;DHT22;491;53.480;10.174;2022-12-07T15:52:11;1.90;99.90
1005;DHT22;491;53.480;10.174;2022-12-07T15:54:37;1.90;99.90
1005;DHT22;491;53.480;10.174;2022-12-07T15:57:08;1.80;99.90
1005;DHT22;491;53.480;10.174;2022-12-07T15:59:34;1.80;99.90
1005;DHT22;491;53.480;10.174;2022-12-07T16:02:05;1.60;99.90
1005;DHT22;491;53.480;10.174;2022-12-07T16:04:48;1.70;99.90
1005;DHT22;491;53.480;10.174;2022-12-07T16:07:13;1.60;99.90
1005;DHT22;491;53.480;10.174;2022-12-07T16:09:59;1.50;99.90
1005;DHT22;491;53.480;10.174;2022-12-07T16:12:30;1.50;99.90
1005;DHT22;491;53.480;10.174;2022-12-07T16:14:56;1.50;99.90
1005;DHT22;491;53.480;10.174;2022-12-07T16:17:24;1.50;99.90
1005;DHT22;491;53.480;10.174;2022-12-07T16:19:50;1.40;99.90
1005;DHT22;491;53.480;10.174;2022-12-07T16:22:25;1.40;99.90
1005;DHT22;491;53.480;10.174;2022-12-07T16:24:56;1.40;99.90
1005;DHT22;491;53.480;10.174;2022-12-07T16:27:25;1.20;99.90
1005;DHT22;491;53.480;10.174;2022-12-07T16:29:56;1.20;99.90
1005;DHT22;491;53.480;10.174;2022-12-07T16:32:22;1.20;99.90
1005;DHT22;491;53.480;10.174;2022-12-07T16:34:47;1.20;99.90
1005;DHT22;491;53.480;10.174;2022-12-07T16:37:16;1.20;99.90
1005;DHT22;491;53.480;10.174;2022-12-07T16:39:42;1.20;99.90
1005;DHT22;491;53.480;10.174;2022-12-07T16:42:07;1.10;99.90
1005;DHT22;491;53.480;10.174;2022-12-07T16:44:33;1.10;99.90
1005;DHT22;491;53.480;10.174;2022-12-07T16:47:00;1.10;99.90
1005;DHT22;491;53.480;10.174;2022-12-07T16:49:26;0.90;99.90
1005;DHT22;491;53.480;10.174;2022-12-07T16:51:54;0.80;99.90
1005;DHT22;491;53.480;10.174;2022-12-07T16:54:20;0.60;99.90
1005;DHT22;491;53.480;10.174;2022-12-07T16:56:58;0.50;99.90
1005;DHT22;491;53.480;10.174;2022-12-07T16:59:26;0.60;99.90
1005;DHT22;491;53.480;10.174;2022-12-07T17:01:52;0.60;99.90
1005;DHT22;491;53.480;10.174;2022-12-07T17:04:23;0.60;99.90
1005;DHT22;491;53.480;10.174;2022-12-07T17:06:49;0.70;99.90
1005;DHT22;491;53.480;10.174;2022-12-07T17:09:15;0.70;99.90
1005;DHT22;491;53.480;10.174;2022-12-07T17:11:43;0.60;99.90
1005;DHT22;491;53.480;10.174;2022-12-07T17:14:09;0.50;99.90
1005;DHT22;491;53.480;10.174;2022-12-07T17:16:53;0.60;99.90
1005;DHT22;491;53.480;10.174;2022-12-07T17:19:19;0.70;99.90
1005;DHT22;491;53.480;10.174;2022-12-07T17:21:45;0.60;99.90
1005;DHT22;491;53.480;10.174;2022-12-07T17:24:14;0.60;99.90
1005;DHT22;491;53.480;10.174;2022-12-07T17:26:42;0.70;99.90
1005;DHT22;491;53.480;10.174;2022-12-07T17:29:09;0.60;99.90
1005;DHT22;491;53.480;10.174;2022-12-07T17:31:36;0.50;99.90
1005;DHT22;491;53.480;10.174;2022-12-07T17:34:01;0.50;99.90
1005;DHT22;491;53.480;10.174;2022-12-07T17:36:29;0.50;99.90
1005;DHT22;491;53.480;10.174;2022-12-07T17:38:55;0.60;99.90
1005;DHT22;491;53.480;10.174;2022-12-07T17:41:24;0.70;99.90
1005;DHT22;491;53.480;10.174;2022-12-07T17:44:12;0.90;99.90
1005;DHT22;491;53.480;10.174;2022-12-07T17:46:39;0.80;99.90
1005;DHT22;491;53.480;10.174;2022-12-07T17:49:05;0.80;99.90
1005;DHT22;491;53.480;10.174;2022-12-07T17:51:31;0.90;99.90
1005;DHT22;491;53.480;10.174;2022-12-07T17:54:15;0.90;99.90
1005;DHT22;491;53.480;10.174;2022-12-07T17:56:44;1.00;99.90
1005;DHT22;491;53.480;10.174;2022-12-07T17:59:09;1.00;99.90
1005;DHT22;491;53.480;10.174;2022-12-07T18:01:35;1.00;99.90
1005;DHT22;491;53.480;10.174;2022-12-07T18:04:04;0.90;99.90
1005;DHT22;491;53.480;10.174;2022-12-07T18:06:30;0.70;99.90
1005;DHT22;491;53.480;10.174;2022-12-07T18:08:56;0.70;99.90
1005;DHT22;491;53.480;10.174;2022-12-07T18:11:32;0.70;99.90
1005;DHT22;491;53.480;10.174;2022-12-07T18:13:57;0.80;99.90
1005;DHT22;491;53.480;10.174;2022-12-07T18:16:25;0.80;99.90